sensor_id;sensor_type;location;lat;lon;timestamp;P1;durP1;ratioP1;P2;durP2;ratioP2
5277;SDS011;2662;51.194;6.614;2022-12-08T00:00:26;18.30;;;10.23;;
5277;SDS011;2662;51.194;6.614;2022-12-08T00:02:52;21.60;;;11.37;;
5277;SDS011;2662;51.194;6.614;2022-12-08T00:05:19;16.50;;;10.80;;
5277;SDS011;2662;51.194;6.614;2022-12-08T00:08:03;17.33;;;9.73;;
5277;SDS011;2662;51.194;6.614;2022-12-08T00:10:48;16.90;;;11.03;;
5277;SDS011;2662;51.194;6.614;2022-12-08T00:13:14;16.87;;;10.40;;
5277;SDS011;2662;51.194;6.614;2022-12-08T00:15:42;18.70;;;11.10;;
5277;SDS011;2662;51.194;6.614;2022-12-08T00:18:09;20.37;;;11.40;;
5277;SDS011;2662;51.194;6.614;2022-12-08T00:20:37;23.33;;;11.40;;
5277;SDS011;2662;51.194;6.614;2022-12-08T00:23:03;16.43;;;9.93;;
5277;SDS011;2662;51.194;6.614;2022-12-08T00:25:30;16.73;;;9.53;;
5277;SDS011;2662;51.194;6.614;2022-12-08T00:28:00;16.93;;;10.20;;
5277;SDS011;2662;51.194;6.614;2022-12-08T00:30:27;15.50;;;9.90;;
5277;SDS011;2662;51.194;6.614;2022-12-08T00:32:55;19.37;;;9.83;;
5277;SDS011;2662;51.194;6.614;2022-12-08T00:35:21;15.77;;;9.63;;
5277;SDS011;2662;51.194;6.614;2022-12-08T00:37:48;16.30;;;9.50;;
5277;SDS011;2662;51.194;6.614;2022-12-08T00:40:15;15.77;;;9.20;;
5277;SDS011;2662;51.194;6.614;2022-12-08T00:42:41;17.83;;;9.50;;
5277;SDS011;2662;51.194;6.614;2022-12-08T00:45:08;16.80;;;9.20;;
5277;SDS011;2662;51.194;6.614;2022-12-08T00:47:36;17.30;;;9.00;;
5277;SDS011;2662;51.194;6.614;2022-12-08T00:50:05;16.23;;;8.80;;
5277;SDS011;2662;51.194;6.614;2022-12-08T00:52:32;20.90;;;10.80;;
5277;SDS011;2662;51.194;6.614;2022-12-08T00:54:59;18.13;;;9.93;;
5277;SDS011;2662;51.194;6.614;2022-12-08T00:57:26;18.40;;;10.20;;
5277;SDS011;2662;51.194;6.614;2022-12-08T00:59:52;24.00;;;10.87;;
5277;SDS011;2662;51.194;6.614;2022-12-08T01:02:19;22.97;;;12.13;;
5277;SDS011;2662;51.194;6.614;2022-12-08T01:04:46;29.57;;;11.40;;
5277;SDS011;2662;51.194;6.614;2022-12-08T01:07:14;20.27;;;11.20;;
5277;SDS011;2662;51.194;6.614;2022-12-08T01:09:41;24.50;;;12.60;;
5277;SDS011;2662;51.194;6.614;2022-12-08T01:12:07;21.40;;;12.83;;
5277;SDS011;2662;51.194;6.614;2022-12-08T01:14:35;22.63;;;12.67;;
5277;SDS011;2662;51.194;6.614;2022-12-08T01:17:02;26.30;;;13.17;;
5277;SDS011;2662;51.194;6.614;2022-12-08T01:19:28;28.37;;;13.90;;
5277;SDS011;2662;51.194;6.614;2022-12-08T01:21:55;27.83;;;14.50;;
5277;SDS011;2662;51.194;6.614;2022-12-08T01:24:23;28.70;;;14.27;;
5277;SDS011;2662;51.194;6.614;2022-12-08T01:26:50;27.93;;;14.63;;
5277;SDS011;2662;51.194;6.614;2022-12-08T01:29:17;27.90;;;14.17;;
5277;SDS011;2662;51.194;6.614;2022-12-08T01:31:43;30.00;;;13.93;;
5277;SDS011;2662;51.194;6.614;2022-12-08T01:34:10;31.23;;;14.60;;
5277;SDS011;2662;51.194;6.614;2022-12-08T01:36:37;25.07;;;13.03;;
5277;SDS011;2662;51.194;6.614;2022-12-08T01:39:05;25.07;;;13.80;;
5277;SDS011;2662;51.194;6.614;2022-12-08T01:41:36;26.27;;;12.83;;
5277;SDS011;2662;51.194;6.614;2022-12-08T01:47:04;25.90;;;11.90;;
5277;SDS011;2662;51.194;6.614;2022-12-08T01:49:31;24.07;;;12.93;;
5277;SDS011;2662;51.194;6.614;2022-12-08T01:52:02;23.93;;;12.37;;
5277;SDS011;2662;51.194;6.614;2022-12-08T01:54:35;20.77;;;11.90;;
5277;SDS011;2662;51.194;6.614;2022-12-08T01:57:08;24.60;;;12.00;;
5277;SDS011;2662;51.194;6.614;2022-12-08T01:59:38;19.83;;;11.10;;
5277;SDS011;2662;51.194;6.614;2022-12-08T02:02:07;26.40;;;11.47;;
5277;SDS011;2662;51.194;6.614;2022-12-08T02:04:35;20.73;;;10.90;;
5277;SDS011;2662;51.194;6.614;2022-12-08T02:07:02;22.33;;;11.73;;
5277;SDS011;2662;51.194;6.614;2022-12-08T02:09:30;28.00;;;11.57;;
5277;SDS011;2662;51.194;6.614;2022-12-08T02:11:57;21.13;;;11.90;;
5277;SDS011;2662;51.194;6.614;2022-12-08T02:14:26;21.67;;;11.33;;
5277;SDS011;2662;51.194;6.614;2022-12-08T02:16:55;17.67;;;10.67;;
5277;SDS011;2662;51.194;6.614;2022-12-08T02:22:26;28.43;;;11.27;;
5277;SDS011;2662;51.194;6.614;2022-12-08T02:25:01;24.00;;;10.70;;
5277;SDS011;2662;51.194;6.614;2022-12-08T02:27:38;20.40;;;11.20;;
5277;SDS011;2662;51.194;6.614;2022-12-08T02:30:14;18.93;;;9.63;;
5277;SDS011;2662;51.194;6.614;2022-12-08T02:32:57;14.80;;;9.23;;
5277;SDS011;2662;51.194;6.614;2022-12-08T02:35:46;20.03;;;10.77;;
5277;SDS011;2662;51.194;6.614;2022-12-08T02:38:20;16.17;;;8.77;;
5277;SDS011;2662;51.194;6.614;2022-12-08T02:40:51;22.47;;;10.00;;
5277;SDS011;2662;51.194;6.614;2022-12-08T02:43:26;18.73;;;9.33;;
5277;SDS011;2662;51.194;6.614;2022-12-08T02:45:58;16.10;;;10.57;;
5277;SDS011;2662;51.194;6.614;2022-12-08T02:48:28;18.10;;;10.30;;
5277;SDS011;2662;51.194;6.614;2022-12-08T02:50:57;16.43;;;9.60;;
5277;SDS011;2662;51.194;6.614;2022-12-08T02:53:23;20.47;;;10.87;;
5277;SDS011;2662;51.194;6.614;2022-12-08T02:55:55;17.10;;;10.27;;
5277;SDS011;2662;51.194;6.614;2022-12-08T03:01:42;14.63;;;9.60;;
5277;SDS011;2662;51.194;6.614;2022-12-08T03:04:19;14.17;;;8.70;;
5277;SDS011;2662;51.194;6.614;2022-12-08T03:06:56;16.60;;;9.40;;
5277;SDS011;2662;51.194;6.614;2022-12-08T03:09:29;18.50;;;9.93;;
5277;SDS011;2662;51.194;6.614;2022-12-08T03:12:03;15.80;;;8.33;;
5277;SDS011;2662;51.194;6.614;2022-12-08T03:14:36;12.87;;;7.57;;
5277;SDS011;2662;51.194;6.614;2022-12-08T03:17:05;15.13;;;7.93;;
5277;SDS011;2662;51.194;6.614;2022-12-08T03:19:34;12.80;;;7.93;;
5277;SDS011;2662;51.194;6.614;2022-12-08T03:22:05;15.40;;;8.83;;
5277;SDS011;2662;51.194;6.614;2022-12-08T03:24:35;17.30;;;7.63;;
5277;SDS011;2662;51.194;6.614;2022-12-08T03:27:04;12.73;;;8.37;;
5277;SDS011;2662;51.194;6.614;2022-12-08T03:29:33;11.70;;;7.67;;
5277;SDS011;2662;51.194;6.614;2022-12-08T03:32:02;10.20;;;7.50;;
5277;SDS011;2662;51.194;6.614;2022-12-08T03:34:35;12.43;;;8.13;;
5277;SDS011;2662;51.194;6.614;2022-12-08T03:37:06;11.97;;;7.50;;
5277;SDS011;2662;51.194;6.614;2022-12-08T03:39:33;12.90;;;6.43;;
5277;SDS011;2662;51.194;6.614;2022-12-08T03:42:00;10.60;;;6.50;;
5277;SDS011;2662;51.194;6.614;2022-12-08T03:44:27;10.17;;;6.83;;
5277;SDS011;2662;51.194;6.614;2022-12-08T03:46:53;14.70;;;7.83;;
5277;SDS011;2662;51.194;6.614;2022-12-08T03:49:20;13.13;;;7.60;;
5277;SDS011;2662;51.194;6.614;2022-12-08T03:51:47;10.50;;;7.13;;
5277;SDS011;2662;51.194;6.614;2022-12-08T03:54:15;13.93;;;7.63;;
5277;SDS011;2662;51.194;6.614;2022-12-08T03:56:41;11.17;;;7.27;;
5277;SDS011;2662;51.194;6.614;2022-12-08T03:59:09;13.63;;;7.27;;
5277;SDS011;2662;51.194;6.614;2022-12-08T04:01:36;11.00;;;7.10;;
5277;SDS011;2662;51.194;6.614;2022-12-08T04:04:03;11.17;;;6.80;;
5277;SDS011;2662;51.194;6.614;2022-12-08T04:06:29;13.97;;;7.90;;
5277;SDS011;2662;51.194;6.614;2022-12-08T04:08:56;12.63;;;7.00;;
5277;SDS011;2662;51.194;6.614;2022-12-08T04:11:25;11.43;;;6.97;;
5277;SDS011;2662;51.194;6.614;2022-12-08T04:13:51;13.97;;;7.80;;
5277;SDS011;2662;51.194;6.614;2022-12-08T04:16:19;10.97;;;7.30;;
5277;SDS011;2662;51.194;6.614;2022-12-08T04:18:47;8.60;;;6.23;;
5277;SDS011;2662;51.194;6.614;2022-12-08T04:21:14;12.50;;;7.07;;
5277;SDS011;2662;51.194;6.614;2022-12-08T04:23:41;9.40;;;6.90;;
5277;SDS011;2662;51.194;6.614;2022-12-08T04:26:08;11.57;;;7.30;;
5277;SDS011;2662;51.194;6.614;2022-12-08T04:28:37;9.27;;;6.20;;
5277;SDS011;2662;51.194;6.614;2022-12-08T04:31:04;10.30;;;6.83;;
5277;SDS011;2662;51.194;6.614;2022-12-08T04:33:31;10.90;;;6.40;;
5277;SDS011;2662;51.194;6.614;2022-12-08T04:35:59;9.67;;;6.20;;
5277;SDS011;2662;51.194;6.614;2022-12-08T04:38:26;10.40;;;6.97;;
5277;SDS011;2662;51.194;6.614;2022-12-08T04:40:52;10.60;;;7.03;;
5277;SDS011;2662;51.194;6.614;2022-12-08T04:43:19;9.57;;;6.20;;
5277;SDS011;2662;51.194;6.614;2022-12-08T04:45:47;11.40;;;7.20;;
5277;SDS011;2662;51.194;6.614;2022-12-08T04:48:14;8.60;;;6.40;;
5277;SDS011;2662;51.194;6.614;2022-12-08T04:50:42;11.53;;;7.30;;
5277;SDS011;2662;51.194;6.614;2022-12-08T04:53:10;11.90;;;7.10;;
5277;SDS011;2662;51.194;6.614;2022-12-08T04:55:38;14.30;;;7.60;;
5277;SDS011;2662;51.194;6.614;2022-12-08T04:58:05;12.50;;;7.57;;
5277;SDS011;2662;51.194;6.614;2022-12-08T05:00:32;16.03;;;8.07;;
5277;SDS011;2662;51.194;6.614;2022-12-08T05:03:00;17.97;;;8.23;;
5277;SDS011;2662;51.194;6.614;2022-12-08T05:05:26;14.23;;;9.20;;
5277;SDS011;2662;51.194;6.614;2022-12-08T05:07:53;14.13;;;8.30;;
5277;SDS011;2662;51.194;6.614;2022-12-08T05:10:20;15.60;;;8.93;;
5277;SDS011;2662;51.194;6.614;2022-12-08T05:12:47;21.33;;;9.80;;
5277;SDS011;2662;51.194;6.614;2022-12-08T05:15:14;25.77;;;10.30;;
5277;SDS011;2662;51.194;6.614;2022-12-08T05:17:40;23.47;;;11.00;;
5277;SDS011;2662;51.194;6.614;2022-12-08T05:20:09;21.87;;;11.03;;
5277;SDS011;2662;51.194;6.614;2022-12-08T05:22:36;23.53;;;11.40;;
5277;SDS011;2662;51.194;6.614;2022-12-08T05:25:03;23.30;;;12.30;;
5277;SDS011;2662;51.194;6.614;2022-12-08T05:27:31;21.43;;;11.60;;
5277;SDS011;2662;51.194;6.614;2022-12-08T05:29:57;21.00;;;11.87;;
5277;SDS011;2662;51.194;6.614;2022-12-08T05:32:24;24.23;;;11.20;;
5277;SDS011;2662;51.194;6.614;2022-12-08T05:34:51;27.33;;;12.43;;
5277;SDS011;2662;51.194;6.614;2022-12-08T05:37:19;22.90;;;13.33;;
5277;SDS011;2662;51.194;6.614;2022-12-08T05:39:46;28.50;;;12.07;;
5277;SDS011;2662;51.194;6.614;2022-12-08T05:42:12;26.93;;;12.73;;
5277;SDS011;2662;51.194;6.614;2022-12-08T05:44:39;24.70;;;12.90;;
5277;SDS011;2662;51.194;6.614;2022-12-08T05:47:06;27.40;;;13.13;;
5277;SDS011;2662;51.194;6.614;2022-12-08T05:49:32;21.57;;;11.77;;
5277;SDS011;2662;51.194;6.614;2022-12-08T05:51:59;27.97;;;11.83;;
5277;SDS011;2662;51.194;6.614;2022-12-08T05:54:27;22.63;;;12.20;;
5277;SDS011;2662;51.194;6.614;2022-12-08T05:56:54;21.87;;;11.80;;
5277;SDS011;2662;51.194;6.614;2022-12-08T05:59:21;23.20;;;11.40;;
5277;SDS011;2662;51.194;6.614;2022-12-08T06:01:47;21.47;;;12.07;;
5277;SDS011;2662;51.194;6.614;2022-12-08T06:04:14;21.00;;;11.83;;
5277;SDS011;2662;51.194;6.614;2022-12-08T06:06:41;23.13;;;11.13;;
5277;SDS011;2662;51.194;6.614;2022-12-08T06:09:08;24.90;;;10.63;;
5277;SDS011;2662;51.194;6.614;2022-12-08T06:11:37;21.23;;;11.00;;
5277;SDS011;2662;51.194;6.614;2022-12-08T06:14:04;19.50;;;10.97;;
5277;SDS011;2662;51.194;6.614;2022-12-08T06:16:34;24.73;;;11.47;;
5277;SDS011;2662;51.194;6.614;2022-12-08T06:19:01;18.77;;;10.30;;
5277;SDS011;2662;51.194;6.614;2022-12-08T06:21:28;20.40;;;11.00;;
5277;SDS011;2662;51.194;6.614;2022-12-08T06:23:55;18.20;;;10.50;;
5277;SDS011;2662;51.194;6.614;2022-12-08T06:26:21;16.77;;;10.23;;
5277;SDS011;2662;51.194;6.614;2022-12-08T06:28:50;19.80;;;10.40;;
5277;SDS011;2662;51.194;6.614;2022-12-08T06:31:17;23.83;;;10.90;;
5277;SDS011;2662;51.194;6.614;2022-12-08T06:33:46;21.13;;;12.63;;
5277;SDS011;2662;51.194;6.614;2022-12-08T06:36:14;20.87;;;10.90;;
5277;SDS011;2662;51.194;6.614;2022-12-08T06:38:42;21.77;;;10.90;;
5277;SDS011;2662;51.194;6.614;2022-12-08T06:41:10;21.17;;;11.33;;
5277;SDS011;2662;51.194;6.614;2022-12-08T06:43:37;19.30;;;10.93;;
5277;SDS011;2662;51.194;6.614;2022-12-08T06:46:07;23.40;;;12.07;;
5277;SDS011;2662;51.194;6.614;2022-12-08T06:48:35;21.53;;;11.97;;
5277;SDS011;2662;51.194;6.614;2022-12-08T06:51:05;24.70;;;12.70;;
5277;SDS011;2662;51.194;6.614;2022-12-08T06:53:33;21.40;;;11.67;;
5277;SDS011;2662;51.194;6.614;2022-12-08T06:56:00;21.40;;;12.33;;
5277;SDS011;2662;51.194;6.614;2022-12-08T06:58:27;18.50;;;11.40;;
5277;SDS011;2662;51.194;6.614;2022-12-08T07:00:54;21.40;;;11.40;;
5277;SDS011;2662;51.194;6.614;2022-12-08T07:03:22;18.90;;;11.47;;
5277;SDS011;2662;51.194;6.614;2022-12-08T07:05:48;20.77;;;10.90;;
5277;SDS011;2662;51.194;6.614;2022-12-08T07:08:15;20.57;;;11.53;;
5277;SDS011;2662;51.194;6.614;2022-12-08T07:10:42;17.70;;;10.80;;
5277;SDS011;2662;51.194;6.614;2022-12-08T07:13:08;23.13;;;12.57;;
5277;SDS011;2662;51.194;6.614;2022-12-08T07:15:35;19.40;;;11.20;;
5277;SDS011;2662;51.194;6.614;2022-12-08T07:18:02;23.30;;;11.50;;
5277;SDS011;2662;51.194;6.614;2022-12-08T07:20:30;17.83;;;11.37;;
5277;SDS011;2662;51.194;6.614;2022-12-08T07:22:57;20.13;;;10.70;;
5277;SDS011;2662;51.194;6.614;2022-12-08T07:25:23;20.13;;;10.20;;
5277;SDS011;2662;51.194;6.614;2022-12-08T07:27:50;17.87;;;10.10;;
5277;SDS011;2662;51.194;6.614;2022-12-08T07:30:17;16.73;;;10.10;;
5277;SDS011;2662;51.194;6.614;2022-12-08T07:32:44;18.10;;;10.20;;
5277;SDS011;2662;51.194;6.614;2022-12-08T07:35:11;16.97;;;9.80;;
5277;SDS011;2662;51.194;6.614;2022-12-08T07:37:39;16.70;;;9.63;;
5277;SDS011;2662;51.194;6.614;2022-12-08T07:40:07;17.57;;;10.00;;
5277;SDS011;2662;51.194;6.614;2022-12-08T07:42:34;16.80;;;9.60;;
5277;SDS011;2662;51.194;6.614;2022-12-08T07:45:01;24.20;;;10.00;;
5277;SDS011;2662;51.194;6.614;2022-12-08T07:47:28;18.80;;;10.67;;
5277;SDS011;2662;51.194;6.614;2022-12-08T07:49:54;15.43;;;9.43;;
5277;SDS011;2662;51.194;6.614;2022-12-08T07:52:21;17.37;;;9.57;;
5277;SDS011;2662;51.194;6.614;2022-12-08T07:54:49;15.37;;;9.80;;
5277;SDS011;2662;51.194;6.614;2022-12-08T07:57:16;19.17;;;10.00;;
5277;SDS011;2662;51.194;6.614;2022-12-08T07:59:43;15.93;;;9.90;;
5277;SDS011;2662;51.194;6.614;2022-12-08T08:02:15;21.03;;;10.30;;
5277;SDS011;2662;51.194;6.614;2022-12-08T08:04:42;19.47;;;11.30;;
5277;SDS011;2662;51.194;6.614;2022-12-08T08:07:09;23.00;;;10.03;;
5277;SDS011;2662;51.194;6.614;2022-12-08T08:09:36;27.00;;;11.67;;
5277;SDS011;2662;51.194;6.614;2022-12-08T08:12:05;21.17;;;10.67;;
5277;SDS011;2662;51.194;6.614;2022-12-08T08:14:31;23.30;;;12.07;;
5277;SDS011;2662;51.194;6.614;2022-12-08T08:16:58;23.00;;;11.67;;
5277;SDS011;2662;51.194;6.614;2022-12-08T08:19:25;24.57;;;12.37;;
5277;SDS011;2662;51.194;6.614;2022-12-08T08:21:52;28.20;;;13.07;;
5277;SDS011;2662;51.194;6.614;2022-12-08T08:24:19;30.37;;;13.07;;
5277;SDS011;2662;51.194;6.614;2022-12-08T08:26:48;38.27;;;13.37;;
5277;SDS011;2662;51.194;6.614;2022-12-08T08:29:16;24.03;;;12.37;;
5277;SDS011;2662;51.194;6.614;2022-12-08T08:31:42;26.53;;;12.87;;
5277;SDS011;2662;51.194;6.614;2022-12-08T08:34:09;31.27;;;13.63;;
5277;SDS011;2662;51.194;6.614;2022-12-08T08:36:36;34.43;;;13.87;;
5277;SDS011;2662;51.194;6.614;2022-12-08T08:39:03;26.30;;;13.60;;
5277;SDS011;2662;51.194;6.614;2022-12-08T08:41:30;27.23;;;13.47;;
5277;SDS011;2662;51.194;6.614;2022-12-08T08:43:57;33.57;;;14.17;;
5277;SDS011;2662;51.194;6.614;2022-12-08T08:46:25;24.47;;;12.83;;
5277;SDS011;2662;51.194;6.614;2022-12-08T08:48:52;28.13;;;12.33;;
5277;SDS011;2662;51.194;6.614;2022-12-08T08:51:19;26.53;;;13.10;;
5277;SDS011;2662;51.194;6.614;2022-12-08T08:53:48;22.73;;;12.53;;
5277;SDS011;2662;51.194;6.614;2022-12-08T08:56:15;22.70;;;12.77;;
5277;SDS011;2662;51.194;6.614;2022-12-08T08:58:43;24.73;;;12.33;;
5277;SDS011;2662;51.194;6.614;2022-12-08T09:01:13;29.40;;;12.70;;
5277;SDS011;2662;51.194;6.614;2022-12-08T09:03:43;32.73;;;11.90;;
5277;SDS011;2662;51.194;6.614;2022-12-08T09:06:09;22.63;;;11.00;;
5277;SDS011;2662;51.194;6.614;2022-12-08T09:08:36;20.00;;;11.47;;
5277;SDS011;2662;51.194;6.614;2022-12-08T09:11:03;23.70;;;12.00;;
5277;SDS011;2662;51.194;6.614;2022-12-08T09:13:30;24.30;;;12.10;;
5277;SDS011;2662;51.194;6.614;2022-12-08T09:15:58;22.90;;;11.00;;
5277;SDS011;2662;51.194;6.614;2022-12-08T09:18:25;21.20;;;11.17;;
5277;SDS011;2662;51.194;6.614;2022-12-08T09:20:53;24.27;;;11.53;;
5277;SDS011;2662;51.194;6.614;2022-12-08T09:23:20;22.97;;;11.40;;
5277;SDS011;2662;51.194;6.614;2022-12-08T09:25:47;21.50;;;10.77;;
5277;SDS011;2662;51.194;6.614;2022-12-08T09:28:14;23.97;;;10.03;;
5277;SDS011;2662;51.194;6.614;2022-12-08T09:30:41;24.10;;;10.37;;
5277;SDS011;2662;51.194;6.614;2022-12-08T09:33:08;25.60;;;11.20;;
5277;SDS011;2662;51.194;6.614;2022-12-08T09:35:34;24.23;;;10.03;;
5277;SDS011;2662;51.194;6.614;2022-12-08T09:38:02;20.67;;;10.63;;
5277;SDS011;2662;51.194;6.614;2022-12-08T09:40:29;20.27;;;8.70;;
5277;SDS011;2662;51.194;6.614;2022-12-08T09:43:04;15.30;;;9.50;;
5277;SDS011;2662;51.194;6.614;2022-12-08T09:45:35;24.10;;;9.33;;
5277;SDS011;2662;51.194;6.614;2022-12-08T09:48:04;14.70;;;8.23;;
5277;SDS011;2662;51.194;6.614;2022-12-08T09:50:36;17.20;;;8.30;;
5277;SDS011;2662;51.194;6.614;2022-12-08T09:53:08;19.60;;;8.00;;
5277;SDS011;2662;51.194;6.614;2022-12-08T09:55:40;14.70;;;7.80;;
5277;SDS011;2662;51.194;6.614;2022-12-08T09:58:13;14.23;;;7.17;;
5277;SDS011;2662;51.194;6.614;2022-12-08T10:00:46;14.17;;;7.87;;
5277;SDS011;2662;51.194;6.614;2022-12-08T10:03:12;14.10;;;7.50;;
5277;SDS011;2662;51.194;6.614;2022-12-08T10:05:40;15.80;;;8.27;;
5277;SDS011;2662;51.194;6.614;2022-12-08T10:08:17;14.53;;;8.27;;
5277;SDS011;2662;51.194;6.614;2022-12-08T10:10:46;20.00;;;9.13;;
5277;SDS011;2662;51.194;6.614;2022-12-08T10:13:19;17.00;;;8.50;;
5277;SDS011;2662;51.194;6.614;2022-12-08T10:15:52;16.90;;;7.80;;
5277;SDS011;2662;51.194;6.614;2022-12-08T10:18:29;18.57;;;9.07;;
5277;SDS011;2662;51.194;6.614;2022-12-08T10:20:59;21.47;;;9.47;;
5277;SDS011;2662;51.194;6.614;2022-12-08T10:23:41;17.80;;;8.60;;
5277;SDS011;2662;51.194;6.614;2022-12-08T10:26:11;22.30;;;9.77;;
5277;SDS011;2662;51.194;6.614;2022-12-08T10:28:40;19.57;;;8.70;;
5277;SDS011;2662;51.194;6.614;2022-12-08T10:31:12;16.50;;;8.47;;
5277;SDS011;2662;51.194;6.614;2022-12-08T10:33:40;14.60;;;7.50;;
5277;SDS011;2662;51.194;6.614;2022-12-08T10:36:07;21.47;;;9.13;;
5277;SDS011;2662;51.194;6.614;2022-12-08T10:38:36;22.40;;;9.23;;
5277;SDS011;2662;51.194;6.614;2022-12-08T10:41:06;35.13;;;9.87;;
5277;SDS011;2662;51.194;6.614;2022-12-08T10:43:38;17.40;;;9.23;;
5277;SDS011;2662;51.194;6.614;2022-12-08T10:46:10;19.47;;;9.80;;
5277;SDS011;2662;51.194;6.614;2022-12-08T10:48:46;13.87;;;7.67;;
5277;SDS011;2662;51.194;6.614;2022-12-08T10:51:24;23.90;;;9.27;;
5277;SDS011;2662;51.194;6.614;2022-12-08T10:53:53;18.23;;;9.10;;
5277;SDS011;2662;51.194;6.614;2022-12-08T10:56:24;16.03;;;8.43;;
5277;SDS011;2662;51.194;6.614;2022-12-08T10:59:03;14.27;;;8.47;;
5277;SDS011;2662;51.194;6.614;2022-12-08T11:01:38;20.90;;;8.57;;
5277;SDS011;2662;51.194;6.614;2022-12-08T11:04:06;16.63;;;9.20;;
5277;SDS011;2662;51.194;6.614;2022-12-08T11:06:38;16.33;;;8.77;;
5277;SDS011;2662;51.194;6.614;2022-12-08T11:09:18;21.73;;;8.60;;
5277;SDS011;2662;51.194;6.614;2022-12-08T11:11:57;17.30;;;8.70;;
5277;SDS011;2662;51.194;6.614;2022-12-08T11:14:26;15.87;;;8.30;;
5277;SDS011;2662;51.194;6.614;2022-12-08T11:16:55;17.73;;;8.30;;
5277;SDS011;2662;51.194;6.614;2022-12-08T11:19:30;15.97;;;9.00;;
5277;SDS011;2662;51.194;6.614;2022-12-08T11:22:01;18.63;;;8.70;;
5277;SDS011;2662;51.194;6.614;2022-12-08T11:24:45;13.90;;;7.13;;
5277;SDS011;2662;51.194;6.614;2022-12-08T11:27:22;18.00;;;7.73;;
5277;SDS011;2662;51.194;6.614;2022-12-08T11:29:49;15.67;;;8.03;;
5277;SDS011;2662;51.194;6.614;2022-12-08T11:32:16;17.87;;;8.20;;
5277;SDS011;2662;51.194;6.614;2022-12-08T11:34:43;19.07;;;8.97;;
5277;SDS011;2662;51.194;6.614;2022-12-08T11:37:14;18.63;;;7.30;;
5277;SDS011;2662;51.194;6.614;2022-12-08T11:39:46;14.00;;;7.80;;
5277;SDS011;2662;51.194;6.614;2022-12-08T11:42:16;13.23;;;7.17;;
5277;SDS011;2662;51.194;6.614;2022-12-08T11:44:48;11.60;;;7.33;;
5277;SDS011;2662;51.194;6.614;2022-12-08T11:47:19;13.83;;;7.33;;
5277;SDS011;2662;51.194;6.614;2022-12-08T11:49:49;25.00;;;8.03;;
5277;SDS011;2662;51.194;6.614;2022-12-08T11:52:21;11.30;;;7.03;;
5277;SDS011;2662;51.194;6.614;2022-12-08T11:54:55;16.23;;;6.97;;
5277;SDS011;2662;51.194;6.614;2022-12-08T11:57:26;18.97;;;7.50;;
5277;SDS011;2662;51.194;6.614;2022-12-08T11:59:56;11.33;;;6.90;;
5277;SDS011;2662;51.194;6.614;2022-12-08T12:02:24;14.03;;;7.47;;
5277;SDS011;2662;51.194;6.614;2022-12-08T12:04:54;19.47;;;6.67;;
5277;SDS011;2662;51.194;6.614;2022-12-08T12:07:27;14.37;;;6.73;;
5277;SDS011;2662;51.194;6.614;2022-12-08T12:10:28;14.20;;;6.80;;
5277;SDS011;2662;51.194;6.614;2022-12-08T12:13:07;11.63;;;6.33;;
5277;SDS011;2662;51.194;6.614;2022-12-08T12:16:04;14.40;;;6.43;;
5277;SDS011;2662;51.194;6.614;2022-12-08T12:18:52;10.63;;;5.40;;
5277;SDS011;2662;51.194;6.614;2022-12-08T12:21:24;10.93;;;6.27;;
5277;SDS011;2662;51.194;6.614;2022-12-08T12:23:56;11.10;;;6.40;;
5277;SDS011;2662;51.194;6.614;2022-12-08T12:26:26;11.67;;;5.33;;
5277;SDS011;2662;51.194;6.614;2022-12-08T12:28:55;11.07;;;5.27;;
5277;SDS011;2662;51.194;6.614;2022-12-08T12:31:27;14.23;;;5.30;;
5277;SDS011;2662;51.194;6.614;2022-12-08T12:34:02;8.07;;;5.60;;
5277;SDS011;2662;51.194;6.614;2022-12-08T12:36:42;13.27;;;6.57;;
5277;SDS011;2662;51.194;6.614;2022-12-08T12:39:12;15.93;;;5.87;;
5277;SDS011;2662;51.194;6.614;2022-12-08T12:41:42;11.37;;;5.80;;
5277;SDS011;2662;51.194;6.614;2022-12-08T12:44:35;12.03;;;5.83;;
5277;SDS011;2662;51.194;6.614;2022-12-08T12:47:07;12.27;;;5.87;;
5277;SDS011;2662;51.194;6.614;2022-12-08T12:52:41;11.30;;;5.93;;
5277;SDS011;2662;51.194;6.614;2022-12-08T12:58:18;9.40;;;4.90;;
5277;SDS011;2662;51.194;6.614;2022-12-08T13:00:47;8.07;;;4.90;;
5277;SDS011;2662;51.194;6.614;2022-12-08T13:03:15;10.13;;;5.20;;
5277;SDS011;2662;51.194;6.614;2022-12-08T13:05:46;9.50;;;5.03;;
5277;SDS011;2662;51.194;6.614;2022-12-08T13:08:15;13.17;;;5.77;;
5277;SDS011;2662;51.194;6.614;2022-12-08T13:10:47;11.10;;;5.57;;
5277;SDS011;2662;51.194;6.614;2022-12-08T13:13:22;13.20;;;4.90;;
5277;SDS011;2662;51.194;6.614;2022-12-08T13:15:49;8.73;;;4.73;;
5277;SDS011;2662;51.194;6.614;2022-12-08T13:18:19;11.40;;;5.77;;
5277;SDS011;2662;51.194;6.614;2022-12-08T13:20:50;11.10;;;5.30;;
5277;SDS011;2662;51.194;6.614;2022-12-08T13:23:40;14.83;;;5.40;;
5277;SDS011;2662;51.194;6.614;2022-12-08T13:29:10;10.47;;;5.33;;
5277;SDS011;2662;51.194;6.614;2022-12-08T13:31:43;10.20;;;5.20;;
5277;SDS011;2662;51.194;6.614;2022-12-08T13:34:14;7.73;;;5.17;;
5277;SDS011;2662;51.194;6.614;2022-12-08T13:36:48;11.40;;;5.60;;
5277;SDS011;2662;51.194;6.614;2022-12-08T13:39:20;12.33;;;7.10;;
5277;SDS011;2662;51.194;6.614;2022-12-08T13:41:56;12.57;;;4.97;;
5277;SDS011;2662;51.194;6.614;2022-12-08T13:44:26;13.50;;;5.27;;
5277;SDS011;2662;51.194;6.614;2022-12-08T13:46:57;12.00;;;5.73;;
5277;SDS011;2662;51.194;6.614;2022-12-08T13:49:27;11.37;;;6.30;;
5277;SDS011;2662;51.194;6.614;2022-12-08T13:51:58;9.70;;;5.87;;
5277;SDS011;2662;51.194;6.614;2022-12-08T13:54:26;10.43;;;5.63;;
5277;SDS011;2662;51.194;6.614;2022-12-08T13:56:56;9.90;;;5.10;;
5277;SDS011;2662;51.194;6.614;2022-12-08T13:59:32;12.40;;;6.23;;
5277;SDS011;2662;51.194;6.614;2022-12-08T14:02:00;14.10;;;6.50;;
5277;SDS011;2662;51.194;6.614;2022-12-08T14:04:30;11.10;;;5.63;;
5277;SDS011;2662;51.194;6.614;2022-12-08T14:06:58;14.90;;;6.17;;
5277;SDS011;2662;51.194;6.614;2022-12-08T14:09:28;11.17;;;6.27;;
5277;SDS011;2662;51.194;6.614;2022-12-08T14:11:59;10.47;;;5.90;;
5277;SDS011;2662;51.194;6.614;2022-12-08T14:14:30;10.50;;;6.00;;
5277;SDS011;2662;51.194;6.614;2022-12-08T14:17:00;12.30;;;6.10;;
5277;SDS011;2662;51.194;6.614;2022-12-08T14:19:29;11.37;;;5.50;;
5277;SDS011;2662;51.194;6.614;2022-12-08T14:21:57;9.93;;;5.47;;
5277;SDS011;2662;51.194;6.614;2022-12-08T14:24:26;7.60;;;5.40;;
5277;SDS011;2662;51.194;6.614;2022-12-08T14:26:55;17.53;;;6.00;;
5277;SDS011;2662;51.194;6.614;2022-12-08T14:29:42;10.53;;;5.47;;
5277;SDS011;2662;51.194;6.614;2022-12-08T14:32:20;12.40;;;5.93;;
5277;SDS011;2662;51.194;6.614;2022-12-08T14:34:50;19.60;;;6.10;;
5277;SDS011;2662;51.194;6.614;2022-12-08T14:37:18;15.10;;;6.10;;
5277;SDS011;2662;51.194;6.614;2022-12-08T14:39:45;13.37;;;6.43;;
5277;SDS011;2662;51.194;6.614;2022-12-08T14:42:15;18.17;;;6.40;;
5277;SDS011;2662;51.194;6.614;2022-12-08T14:44:55;19.07;;;6.97;;
5277;SDS011;2662;51.194;6.614;2022-12-08T14:47:27;14.50;;;7.10;;
5277;SDS011;2662;51.194;6.614;2022-12-08T14:49:55;13.30;;;6.73;;
5277;SDS011;2662;51.194;6.614;2022-12-08T14:52:22;13.10;;;7.03;;
5277;SDS011;2662;51.194;6.614;2022-12-08T14:54:50;12.53;;;6.13;;
5277;SDS011;2662;51.194;6.614;2022-12-08T14:57:18;11.73;;;6.60;;
5277;SDS011;2662;51.194;6.614;2022-12-08T14:59:45;11.37;;;6.27;;
5277;SDS011;2662;51.194;6.614;2022-12-08T15:02:22;10.97;;;6.70;;
5277;SDS011;2662;51.194;6.614;2022-12-08T15:04:53;17.10;;;6.60;;
5277;SDS011;2662;51.194;6.614;2022-12-08T15:07:25;11.00;;;7.37;;
5277;SDS011;2662;51.194;6.614;2022-12-08T15:10:07;18.27;;;7.57;;
5277;SDS011;2662;51.194;6.614;2022-12-08T15:12:55;13.23;;;7.13;;
5277;SDS011;2662;51.194;6.614;2022-12-08T15:15:23;9.80;;;6.93;;
5277;SDS011;2662;51.194;6.614;2022-12-08T15:17:56;16.73;;;6.50;;
5277;SDS011;2662;51.194;6.614;2022-12-08T15:20:27;14.70;;;6.20;;
5277;SDS011;2662;51.194;6.614;2022-12-08T15:22:59;11.07;;;6.43;;
5277;SDS011;2662;51.194;6.614;2022-12-08T15:25:26;14.93;;;7.10;;
5277;SDS011;2662;51.194;6.614;2022-12-08T15:27:53;15.50;;;7.50;;